createdAt,value
2022-11-27T00:01:51.987Z,95.11
2022-11-27T00:04:21.950Z,94.68
2022-11-27T00:06:55.551Z,94.69
2022-11-27T00:09:25.596Z,94.50
2022-11-27T00:11:55.472Z,94.44
2022-11-27T00:14:25.344Z,94.23
2022-11-27T00:16:55.297Z,94.30
2022-11-27T00:19:25.227Z,94.67
2022-11-27T00:21:57.999Z,95.09
2022-11-27T00:24:27.940Z,95.64
2022-11-27T00:26:57.833Z,95.99
2022-11-27T00:29:29.228Z,96.12
2022-11-27T00:31:59.544Z,95.73
2022-11-27T00:34:29.437Z,98.09
2022-11-27T00:37:02.007Z,100.00
2022-11-27T00:39:31.934Z,99.83
2022-11-27T00:42:01.866Z,98.77
2022-11-27T00:44:31.891Z,98.39
2022-11-27T00:47:02.276Z,97.96
2022-11-27T00:49:32.306Z,97.63
2022-11-27T00:52:04.752Z,96.96
2022-11-27T00:54:34.573Z,96.55
2022-11-27T00:57:04.433Z,96.10
2022-11-27T00:59:34.652Z,96.81
2022-11-27T01:02:04.616Z,96.20
2022-11-27T01:04:34.507Z,97.04
2022-11-27T01:07:07.026Z,97.42
2022-11-27T01:09:36.935Z,97.51
2022-11-27T01:12:07.665Z,96.70
2022-11-27T01:14:38.108Z,97.63
2022-11-27T01:17:08.218Z,97.15
2022-11-27T01:19:38.070Z,96.88
2022-11-27T01:22:10.642Z,95.88
2022-11-27T01:24:40.700Z,96.15
2022-11-27T01:27:10.765Z,96.14
2022-11-27T01:29:40.832Z,97.29
2022-11-27T01:32:10.691Z,98.03
2022-11-27T01:34:40.623Z,99.33
2022-11-27T01:37:13.192Z,99.23
2022-11-27T01:39:43.237Z,99.88
2022-11-27T01:42:13.772Z,100.00
2022-11-27T01:44:58.332Z,100.00
2022-11-27T01:47:47.672Z,100.00
2022-11-27T01:50:24.134Z,100.00
2022-11-27T01:53:02.830Z,100.00
2022-11-27T01:55:36.618Z,100.00
2022-11-27T01:58:10.837Z,99.44
2022-11-27T02:00:41.195Z,99.75
2022-11-27T02:03:11.228Z,99.35
2022-11-27T02:05:41.285Z,99.69
2022-11-27T02:08:17.197Z,98.61
2022-11-27T02:10:52.218Z,98.02
2022-11-27T02:13:28.705Z,97.62
2022-11-27T02:16:08.737Z,96.93
2022-11-27T02:18:46.307Z,97.28
2022-11-27T02:21:22.850Z,97.50
2022-11-27T02:24:22.477Z,94.84
2022-11-27T02:27:20.862Z,95.80
2022-11-27T02:29:57.549Z,97.07
2022-11-27T02:32:32.419Z,96.32
2022-11-27T02:35:07.406Z,96.20
2022-11-27T02:37:42.490Z,97.12
2022-11-27T02:40:16.678Z,98.21
2022-11-27T02:42:50.916Z,98.52
2022-11-27T02:45:27.881Z,97.96
2022-11-27T02:47:59.818Z,97.56
2022-11-27T02:50:33.623Z,96.20
2022-11-27T02:53:08.091Z,96.19
2022-11-27T02:55:41.075Z,96.90
2022-11-27T02:58:15.660Z,97.15
2022-11-27T03:00:50.148Z,97.79
2022-11-27T03:03:24.324Z,97.43
2022-11-27T03:05:58.355Z,97.34
2022-11-27T03:08:33.832Z,97.23
2022-11-27T03:11:06.943Z,96.87
2022-11-27T03:13:40.087Z,96.12
2022-11-27T03:16:18.507Z,95.02
2022-11-27T03:18:59.474Z,94.27
2022-11-27T03:21:35.192Z,94.11
2022-11-27T03:24:05.455Z,94.02
2022-11-27T03:26:35.499Z,93.75
2022-11-27T03:29:07.943Z,93.18
2022-11-27T03:31:40.870Z,93.16
2022-11-27T03:34:11.359Z,93.11
2022-11-27T03:36:41.339Z,93.11
2022-11-27T03:39:11.937Z,92.76
2022-11-27T03:41:49.794Z,92.47
2022-11-27T03:44:30.876Z,91.83
2022-11-27T03:47:13.138Z,91.68
2022-11-27T03:49:57.009Z,91.07
2022-11-27T03:52:33.397Z,91.43
2022-11-27T03:55:11.166Z,93.11
2022-11-27T03:57:46.325Z,93.64
2022-11-27T04:00:17.799Z,93.92
2022-11-27T04:02:53.128Z,94.05
2022-11-27T04:05:23.572Z,93.68
2022-11-27T04:07:53.524Z,93.87
2022-11-27T04:10:24.247Z,93.16
2022-11-27T04:12:54.123Z,93.16
2022-11-27T04:15:24.039Z,93.11
2022-11-27T04:17:56.520Z,92.21
2022-11-27T04:20:26.587Z,92.28
2022-11-27T04:22:56.453Z,92.49
2022-11-27T04:25:26.613Z,92.76
2022-11-27T04:27:56.485Z,92.90
2022-11-27T04:30:26.526Z,92.99
2022-11-27T04:32:58.979Z,93.63
2022-11-27T04:35:28.808Z,93.67
2022-11-27T04:37:59.670Z,93.47
2022-11-27T04:40:29.560Z,93.62
2022-11-27T04:42:59.413Z,93.40
2022-11-27T04:45:29.339Z,92.83
2022-11-27T04:48:01.775Z,92.04
2022-11-27T04:50:32.776Z,91.69
2022-11-27T04:53:02.811Z,92.17
2022-11-27T04:55:32.623Z,92.28
2022-11-27T04:58:02.477Z,92.27
2022-11-27T05:00:32.386Z,93.00
2022-11-27T05:03:04.968Z,92.67
2022-11-27T05:05:34.953Z,92.77
2022-11-27T05:08:04.759Z,93.26
2022-11-27T05:10:34.599Z,93.00
2022-11-27T05:13:04.447Z,93.67
2022-11-27T05:15:34.249Z,94.16
2022-11-27T05:18:07.033Z,94.47
2022-11-27T05:20:36.897Z,94.82
2022-11-27T05:23:06.714Z,95.05
2022-11-27T05:25:36.527Z,95.91
2022-11-27T05:28:06.632Z,95.25
2022-11-27T05:30:36.490Z,94.45
2022-11-27T05:33:08.963Z,93.64
2022-11-27T05:35:38.794Z,94.62
2022-11-27T05:38:08.986Z,94.49
2022-11-27T05:40:38.867Z,95.09
2022-11-27T05:43:08.848Z,94.60
2022-11-27T05:45:40.240Z,94.50
2022-11-27T05:48:12.720Z,93.87
2022-11-27T05:50:42.680Z,93.22
2022-11-27T05:53:12.517Z,92.34
2022-11-27T05:55:42.386Z,92.15
2022-11-27T05:58:12.235Z,92.21
2022-11-27T06:00:42.055Z,91.59
2022-11-27T06:03:14.501Z,91.26
2022-11-27T06:05:45.507Z,90.95
2022-11-27T06:08:15.344Z,91.33
2022-11-27T06:10:45.239Z,90.51
2022-11-27T06:13:15.172Z,90.24
2022-11-27T06:15:45.576Z,89.66
2022-11-27T06:18:18.023Z,88.66
2022-11-27T06:20:51.712Z,89.07
2022-11-27T06:23:22.851Z,89.27
2022-11-27T06:25:52.710Z,89.46
2022-11-27T06:28:22.525Z,89.03
2022-11-27T06:30:52.569Z,89.73
2022-11-27T06:33:25.025Z,90.29
2022-11-27T06:35:57.791Z,90.77
2022-11-27T06:38:27.632Z,91.41
2022-11-27T06:40:57.488Z,91.40
2022-11-27T06:43:27.377Z,91.77
2022-11-27T06:46:01.075Z,92.15
2022-11-27T06:48:33.879Z,92.25
2022-11-27T06:51:04.313Z,92.99
2022-11-27T06:53:35.883Z,93.87
2022-11-27T06:56:06.145Z,93.84
2022-11-27T06:58:36.083Z,93.68
2022-11-27T07:01:07.609Z,93.02
2022-11-27T07:03:40.135Z,93.48
2022-11-27T07:06:11.999Z,94.56
2022-11-27T07:08:42.330Z,94.26
2022-11-27T07:11:16.638Z,94.28
2022-11-27T07:13:46.775Z,94.88
2022-11-27T07:16:17.767Z,95.81
2022-11-27T07:18:52.095Z,95.12
2022-11-27T07:21:23.441Z,93.48
2022-11-27T07:23:56.415Z,92.94
2022-11-27T07:26:28.386Z,92.60
2022-11-27T07:28:59.006Z,91.63
2022-11-27T07:31:31.067Z,91.08
2022-11-27T07:34:06.943Z,90.51
2022-11-27T07:36:40.770Z,90.21
2022-11-27T07:39:10.709Z,90.51
2022-11-27T07:41:40.633Z,91.11
2022-11-27T07:44:10.631Z,91.17
2022-11-27T07:46:40.550Z,90.62
2022-11-27T07:49:13.105Z,90.41
2022-11-27T07:51:42.974Z,91.27
2022-11-27T07:54:13.089Z,92.08
2022-11-27T07:56:42.963Z,92.52
2022-11-27T07:59:12.872Z,91.65
2022-11-27T08:01:44.888Z,92.34
2022-11-27T08:04:18.502Z,92.11
2022-11-27T08:06:48.437Z,92.22
2022-11-27T08:09:18.422Z,91.96
2022-11-27T08:11:49.311Z,92.12
2022-11-27T08:14:19.375Z,92.13
2022-11-27T08:16:50.333Z,92.05
2022-11-27T08:19:24.305Z,91.28
2022-11-27T08:21:54.236Z,91.32
2022-11-27T08:24:24.123Z,91.08
2022-11-27T08:26:55.049Z,90.47
2022-11-27T08:29:31.194Z,89.80
2022-11-27T08:32:04.762Z,90.22
2022-11-27T08:34:37.301Z,90.46
2022-11-27T08:37:08.534Z,90.17
2022-11-27T08:39:38.693Z,89.37
2022-11-27T08:42:08.687Z,89.04
2022-11-27T08:44:39.821Z,89.35
2022-11-27T08:47:10.888Z,89.65
2022-11-27T08:49:46.230Z,88.75
2022-11-27T08:52:16.434Z,89.11
2022-11-27T08:54:47.257Z,89.17
2022-11-27T08:57:19.800Z,89.25
2022-11-27T08:59:49.726Z,90.28
2022-11-27T09:02:20.766Z,90.05
2022-11-27T09:04:54.535Z,90.92
2022-11-27T09:07:25.588Z,90.97
2022-11-27T09:09:55.692Z,90.58
2022-11-27T09:12:27.631Z,91.09
2022-11-27T09:14:57.571Z,91.42
2022-11-27T09:17:28.650Z,91.47
2022-11-27T09:20:02.229Z,91.05
2022-11-27T09:22:33.272Z,91.28
2022-11-27T09:25:04.554Z,88.91
2022-11-27T09:27:34.536Z,90.21
2022-11-27T09:30:04.558Z,88.58
2022-11-27T09:32:35.601Z,89.16
2022-11-27T09:35:09.832Z,89.03
2022-11-27T09:37:41.739Z,89.25
2022-11-27T09:40:17.804Z,88.97
2022-11-27T09:42:56.504Z,89.44
2022-11-27T09:45:28.212Z,90.27
2022-11-27T09:48:03.611Z,89.69
2022-11-27T09:50:39.532Z,89.76
2022-11-27T09:53:21.839Z,89.36
2022-11-27T09:55:56.181Z,89.79
2022-11-27T09:58:38.217Z,89.68
2022-11-27T10:01:14.931Z,90.07
2022-11-27T10:03:48.072Z,90.03
2022-11-27T10:06:29.905Z,89.76
2022-11-27T10:09:15.351Z,88.98
2022-11-27T10:11:53.112Z,88.98
2022-11-27T10:14:37.680Z,88.99
2022-11-27T10:17:15.692Z,88.96
2022-11-27T10:19:54.795Z,88.48
2022-11-27T10:22:35.892Z,88.44
2022-11-27T10:25:17.323Z,88.55
2022-11-27T10:28:00.887Z,87.54
2022-11-27T10:30:32.574Z,87.83
2022-11-27T10:33:05.449Z,88.06
2022-11-27T10:35:36.659Z,87.64
2022-11-27T10:38:16.484Z,87.47
2022-11-27T10:40:56.308Z,87.48
2022-11-27T10:43:28.666Z,87.14
2022-11-27T10:46:02.388Z,86.65
2022-11-27T10:48:35.539Z,86.88
2022-11-27T10:51:05.562Z,86.81
2022-11-27T10:53:43.085Z,85.89
2022-11-27T10:56:39.875Z,85.74
2022-11-27T10:59:14.534Z,86.30
2022-11-27T11:01:46.792Z,85.94
2022-11-27T11:04:36.876Z,84.29
2022-11-27T11:07:26.120Z,84.09
2022-11-27T11:09:59.819Z,84.60
2022-11-27T11:12:29.841Z,84.64
2022-11-27T11:15:05.083Z,84.82
2022-11-27T11:17:37.960Z,84.08
2022-11-27T11:20:18.366Z,82.67
2022-11-27T11:22:49.937Z,82.90
2022-11-27T11:25:24.953Z,82.35
2022-11-27T11:27:56.211Z,82.32
2022-11-27T11:30:34.767Z,82.38
2022-11-27T11:33:07.266Z,83.10
2022-11-27T11:35:39.156Z,81.08
2022-11-27T11:38:17.649Z,82.56
2022-11-27T11:41:02.461Z,81.91
2022-11-27T11:43:35.749Z,81.45
2022-11-27T11:46:22.945Z,82.00
2022-11-27T11:48:57.947Z,82.69
2022-11-27T11:52:05.384Z,82.24
2022-11-27T11:54:52.456Z,82.19
2022-11-27T11:57:51.376Z,82.11
2022-11-27T12:00:30.141Z,81.27
2022-11-27T12:03:21.623Z,81.69
2022-11-27T12:06:09.793Z,80.43
2022-11-27T12:09:02.770Z,81.32
2022-11-27T12:11:40.605Z,81.00
2022-11-27T12:14:27.437Z,81.12
2022-11-27T12:17:07.323Z,81.48
2022-11-27T12:20:05.995Z,81.06
2022-11-27T12:22:51.519Z,80.97
2022-11-27T12:25:32.803Z,80.09
2022-11-27T12:28:26.971Z,79.97
2022-11-27T12:31:08.624Z,80.26
2022-11-27T12:33:53.656Z,78.83
2022-11-27T12:36:33.969Z,78.78
2022-11-27T12:39:14.085Z,78.26
2022-11-27T12:42:03.428Z,77.24
2022-11-27T12:44:45.089Z,77.62
2022-11-27T12:47:21.984Z,76.89
2022-11-27T12:49:56.353Z,76.65
2022-11-27T12:52:28.886Z,76.42
2022-11-27T12:55:04.802Z,76.59
2022-11-27T12:57:42.687Z,76.18
2022-11-27T13:00:19.099Z,75.64
2022-11-27T13:03:02.804Z,75.06
2022-11-27T13:05:37.636Z,75.56
2022-11-27T13:08:13.572Z,75.30
2022-11-27T13:10:48.897Z,75.61
2022-11-27T13:13:25.001Z,75.08
2022-11-27T13:15:59.190Z,74.80
2022-11-27T13:18:39.502Z,74.61
2022-11-27T13:21:15.114Z,75.26
2022-11-27T13:23:46.138Z,74.86
2022-11-27T13:26:24.848Z,75.21
2022-11-27T13:28:59.918Z,75.12
2022-11-27T13:31:35.474Z,74.69
2022-11-27T13:34:12.916Z,74.39
2022-11-27T13:36:47.009Z,74.85
2022-11-27T13:39:27.378Z,74.59
2022-11-27T13:42:09.093Z,74.92
2022-11-27T13:44:44.806Z,74.18
2022-11-27T13:47:19.930Z,74.97
2022-11-27T13:50:01.759Z,74.62
2022-11-27T13:52:32.270Z,74.68
2022-11-27T13:55:05.575Z,74.45
2022-11-27T13:57:38.530Z,74.64
2022-11-27T14:00:13.318Z,74.00
2022-11-27T14:02:47.641Z,73.41
2022-11-27T14:05:23.054Z,73.66
2022-11-27T14:07:55.498Z,74.51
2022-11-27T14:10:29.660Z,74.53
2022-11-27T14:13:02.470Z,74.27
2022-11-27T14:15:34.297Z,74.37
2022-11-27T14:18:10.289Z,74.07
2022-11-27T14:20:50.772Z,73.62
2022-11-27T14:23:30.069Z,73.31
2022-11-27T14:26:14.687Z,72.55
2022-11-27T14:28:46.715Z,73.03
2022-11-27T14:31:31.668Z,72.58
2022-11-27T14:34:24.324Z,72.40
2022-11-27T14:36:57.642Z,72.42
2022-11-27T14:39:30.686Z,72.16
2022-11-27T14:42:02.385Z,72.35
2022-11-27T14:44:33.014Z,72.64
2022-11-27T14:47:06.781Z,72.11
2022-11-27T14:49:38.641Z,71.86
2022-11-27T14:52:18.113Z,71.67
2022-11-27T14:54:48.289Z,71.84
2022-11-27T14:57:28.905Z,71.35
2022-11-27T15:00:18.411Z,70.70
2022-11-27T15:02:52.047Z,70.76
2022-11-27T15:05:25.553Z,70.39
2022-11-27T15:08:00.984Z,69.57
2022-11-27T15:10:35.210Z,69.69
2022-11-27T15:13:06.153Z,69.38
2022-11-27T15:15:41.666Z,68.93
2022-11-27T15:18:17.413Z,69.24
2022-11-27T15:20:48.357Z,69.65
2022-11-27T15:23:24.489Z,69.90
2022-11-27T15:26:12.548Z,70.47
2022-11-27T15:28:45.359Z,70.32
2022-11-27T15:31:29.767Z,70.78
2022-11-27T15:34:02.609Z,70.74
2022-11-27T15:36:43.390Z,71.14
2022-11-27T15:39:23.703Z,70.98
2022-11-27T15:41:58.486Z,71.10
2022-11-27T15:44:33.186Z,70.99
2022-11-27T15:47:07.172Z,70.46
2022-11-27T15:49:37.163Z,69.64
2022-11-27T15:52:08.112Z,69.71
2022-11-27T15:54:41.990Z,70.55
2022-11-27T15:57:12.187Z,71.07
2022-11-27T15:59:42.323Z,71.14
2022-11-27T16:02:17.859Z,72.12
2022-11-27T16:04:50.182Z,71.47
2022-11-27T16:07:21.237Z,71.12
2022-11-27T16:09:54.746Z,72.14
2022-11-27T16:12:25.011Z,72.52
2022-11-27T16:14:56.082Z,71.84
2022-11-27T16:17:27.093Z,71.88
2022-11-27T16:19:58.035Z,72.22
2022-11-27T16:22:29.061Z,71.27
2022-11-27T16:25:02.644Z,70.27
2022-11-27T16:27:33.553Z,70.53
2022-11-27T16:30:03.619Z,69.58
2022-11-27T16:32:35.446Z,70.13
2022-11-27T16:35:08.620Z,70.09
2022-11-27T16:37:39.928Z,69.40
2022-11-27T16:40:15.652Z,70.55
2022-11-27T16:42:47.998Z,70.33
2022-11-27T16:45:18.129Z,69.85
2022-11-27T16:47:49.115Z,70.33
2022-11-27T16:50:22.391Z,69.98
2022-11-27T16:52:54.524Z,69.39
2022-11-27T16:55:30.702Z,69.59
2022-11-27T16:58:02.895Z,69.60
2022-11-27T17:00:33.937Z,69.00
2022-11-27T17:03:04.834Z,69.04
2022-11-27T17:05:39.882Z,69.08
2022-11-27T17:08:09.888Z,68.82
2022-11-27T17:10:44.184Z,68.57
2022-11-27T17:13:15.093Z,68.41
2022-11-27T17:15:45.301Z,68.76
2022-11-27T17:18:17.003Z,69.07
2022-11-27T17:20:46.979Z,69.21
2022-11-27T17:23:18.027Z,69.46
2022-11-27T17:25:51.576Z,69.19
2022-11-27T17:28:21.746Z,69.48
2022-11-27T17:30:52.934Z,69.14
2022-11-27T17:33:22.860Z,69.61
2022-11-27T17:35:52.731Z,69.24
2022-11-27T17:38:23.768Z,69.22
2022-11-27T17:40:56.532Z,69.42
2022-11-27T17:43:28.103Z,68.81
2022-11-27T17:45:58.169Z,68.96
2022-11-27T17:48:29.435Z,69.39
2022-11-27T17:51:02.674Z,69.72
2022-11-27T17:53:32.744Z,69.86
2022-11-27T17:56:09.313Z,69.61
2022-11-27T17:58:39.810Z,69.97
2022-11-27T18:01:18.683Z,69.50
2022-11-27T18:03:50.259Z,69.79
2022-11-27T18:06:22.858Z,69.40
2022-11-27T18:08:55.357Z,69.48
2022-11-27T18:11:30.053Z,68.81
2022-11-27T18:14:02.660Z,68.66
2022-11-27T18:16:35.222Z,68.43
2022-11-27T18:19:08.014Z,68.09
2022-11-27T18:21:39.082Z,68.55
2022-11-27T18:24:25.920Z,68.42
2022-11-27T18:27:09.216Z,68.95
2022-11-27T18:29:40.814Z,69.23
2022-11-27T18:32:13.767Z,68.47
2022-11-27T18:34:45.197Z,68.94
2022-11-27T18:37:15.895Z,68.57
2022-11-27T18:39:47.747Z,68.80
2022-11-27T18:42:21.401Z,69.06
2022-11-27T18:44:53.492Z,69.19
2022-11-27T18:47:23.713Z,69.17
2022-11-27T18:49:55.728Z,69.07
2022-11-27T18:52:26.728Z,69.44
2022-11-27T18:54:56.823Z,68.51
2022-11-27T18:57:29.500Z,68.49
2022-11-27T18:59:59.529Z,69.23
2022-11-27T19:02:29.607Z,69.43
2022-11-27T19:04:59.645Z,69.27
2022-11-27T19:07:30.698Z,68.33
2022-11-27T19:10:00.905Z,68.80
2022-11-27T19:12:33.580Z,69.35
2022-11-27T19:15:03.484Z,69.96
2022-11-27T19:17:34.931Z,69.79
2022-11-27T19:20:06.831Z,69.82
2022-11-27T19:22:36.932Z,69.94
2022-11-27T19:25:09.019Z,69.67
2022-11-27T19:27:41.785Z,69.57
2022-11-27T19:30:12.797Z,69.22
2022-11-27T19:32:43.768Z,69.23
2022-11-27T19:35:14.821Z,69.49
2022-11-27T19:37:45.013Z,70.00
2022-11-27T19:40:17.142Z,70.26
2022-11-27T19:42:55.567Z,69.80
2022-11-27T19:45:29.835Z,69.94
2022-11-27T19:48:01.278Z,69.36
2022-11-27T19:50:32.590Z,69.90
2022-11-27T19:53:05.002Z,70.06
2022-11-27T19:55:37.305Z,69.95
2022-11-27T19:58:11.244Z,70.37
2022-11-27T20:00:42.588Z,70.52
2022-11-27T20:03:14.758Z,70.40
2022-11-27T20:05:44.705Z,70.11
2022-11-27T20:08:15.174Z,70.24
2022-11-27T20:10:52.039Z,70.80
2022-11-27T20:13:24.616Z,71.25
2022-11-27T20:15:55.611Z,71.36
2022-11-27T20:18:27.965Z,70.74
2022-11-27T20:21:07.691Z,70.77
2022-11-27T20:23:39.067Z,70.75
2022-11-27T20:26:11.512Z,70.98
2022-11-27T20:28:45.571Z,70.97
2022-11-27T20:31:23.129Z,70.82
2022-11-27T20:33:54.371Z,69.82
2022-11-27T20:36:25.818Z,69.59
2022-11-27T20:38:57.886Z,69.49
2022-11-27T20:41:30.165Z,69.72
2022-11-27T20:44:04.880Z,69.85
2022-11-27T20:46:36.261Z,69.90
2022-11-27T20:49:07.334Z,70.17
2022-11-27T20:51:37.921Z,70.38
2022-11-27T20:54:13.123Z,70.50
2022-11-27T20:56:45.655Z,70.54
2022-11-27T20:59:19.235Z,69.65
2022-11-27T21:01:49.518Z,69.83
2022-11-27T21:04:23.822Z,70.37
2022-11-27T21:06:56.668Z,71.09
2022-11-27T21:09:27.971Z,71.16
2022-11-27T21:12:00.187Z,71.81
2022-11-27T21:14:33.641Z,71.65
2022-11-27T21:17:05.230Z,72.72
2022-11-27T21:19:37.155Z,72.79
2022-11-27T21:22:07.562Z,73.86
2022-11-27T21:24:37.491Z,73.99
2022-11-27T21:27:08.155Z,74.76
2022-11-27T21:29:42.010Z,75.42
2022-11-27T21:32:14.492Z,76.78
2022-11-27T21:34:44.756Z,77.59
2022-11-27T21:37:16.015Z,78.74
2022-11-27T21:39:47.038Z,79.59
2022-11-27T21:42:18.573Z,81.11
2022-11-27T21:44:51.713Z,80.67
2022-11-27T21:47:22.221Z,81.83
2022-11-27T21:49:53.042Z,81.93
2022-11-27T21:52:24.133Z,81.89
2022-11-27T21:54:55.957Z,82.25
2022-11-27T21:57:25.859Z,82.00
2022-11-27T21:59:59.451Z,81.98
2022-11-27T22:02:29.361Z,82.40
2022-11-27T22:05:00.298Z,82.19
2022-11-27T22:07:30.334Z,81.36
2022-11-27T22:10:01.246Z,82.34
2022-11-27T22:12:32.240Z,81.95
2022-11-27T22:15:05.171Z,81.90
2022-11-27T22:17:36.170Z,78.31
2022-11-27T22:20:08.402Z,80.76
2022-11-27T22:22:39.555Z,81.96
2022-11-27T22:25:10.061Z,80.72
2022-11-27T22:27:40.571Z,80.35
2022-11-27T22:30:14.122Z,80.12
2022-11-27T22:32:44.112Z,79.55
2022-11-27T22:35:14.237Z,79.74
2022-11-27T22:37:45.470Z,79.74
2022-11-27T22:40:16.979Z,79.63
2022-11-27T22:42:48.231Z,79.81
2022-11-27T22:45:21.109Z,79.65
2022-11-27T22:47:52.012Z,79.45
2022-11-27T22:50:22.902Z,79.71
2022-11-27T22:52:58.075Z,79.29
2022-11-27T22:55:28.255Z,78.55
2022-11-27T22:57:58.234Z,78.34
2022-11-27T23:00:30.795Z,78.40
2022-11-27T23:03:01.123Z,78.56
2022-11-27T23:05:31.162Z,78.15
2022-11-27T23:08:01.643Z,78.58
2022-11-27T23:10:32.056Z,78.34
2022-11-27T23:13:02.027Z,78.27
2022-11-27T23:15:35.468Z,78.07
2022-11-27T23:18:06.800Z,79.24
2022-11-27T23:20:37.861Z,79.76
2022-11-27T23:23:07.856Z,78.93
2022-11-27T23:25:37.995Z,80.12
2022-11-27T23:28:09.370Z,80.85
2022-11-27T23:30:43.063Z,80.24
2022-11-27T23:33:13.018Z,80.64
2022-11-27T23:35:43.978Z,82.10
2022-11-27T23:38:13.872Z,81.62
2022-11-27T23:40:43.823Z,80.72
2022-11-27T23:43:14.728Z,81.21
2022-11-27T23:45:47.389Z,81.17
2022-11-27T23:48:18.329Z,81.50
2022-11-27T23:50:49.274Z,80.88
2022-11-27T23:53:20.231Z,79.99
2022-11-27T23:55:50.232Z,79.45
2022-11-27T23:58:21.215Z,78.66
